createdAt,value
2022-08-09T00:02:56.705Z,68.23
2022-08-09T00:08:01.454Z,68.46
2022-08-09T00:13:16.922Z,68.56
2022-08-09T00:18:21.485Z,68.79
2022-08-09T00:23:55.324Z,68.97
2022-08-09T00:28:52.507Z,69.32
2022-08-09T00:33:56.402Z,69.30
2022-08-09T00:38:59.715Z,69.49
2022-08-09T00:44:15.135Z,70.10
2022-08-09T00:49:26.613Z,70.52
2022-08-09T00:54:35.875Z,70.54
2022-08-09T00:59:46.258Z,71.09
2022-08-09T01:04:58.460Z,70.87
2022-08-09T01:10:11.458Z,70.77
2022-08-09T01:15:19.472Z,70.95
2022-08-09T01:20:35.759Z,71.20
2022-08-09T01:26:09.967Z,71.30
2022-08-09T01:31:40.909Z,71.16
2022-08-09T01:36:46.824Z,71.55
2022-08-09T01:41:53.784Z,71.53
2022-08-09T01:47:06.173Z,71.52
2022-08-09T01:52:18.867Z,71.71
2022-08-09T01:57:29.142Z,71.78
2022-08-09T02:02:36.570Z,72.30
2022-08-09T02:08:39.436Z,72.38
2022-08-09T02:13:19.921Z,72.74
2022-08-09T02:18:28.618Z,72.73
2022-08-09T02:23:42.876Z,72.94
2022-08-09T02:28:53.394Z,73.44
2022-08-09T02:34:07.162Z,73.89
2022-08-09T02:39:33.638Z,73.78
2022-08-09T02:44:53.096Z,73.84
2022-08-09T02:50:02.814Z,73.82
2022-08-09T02:55:20.906Z,73.96
2022-08-09T03:00:26.498Z,74.11
2022-08-09T03:05:34.387Z,74.29
2022-08-09T03:10:40.009Z,74.69
2022-08-09T03:16:05.993Z,75.05
2022-08-09T03:21:12.285Z,75.49
2022-08-09T03:26:21.076Z,75.55
2022-08-09T03:31:42.686Z,76.52
2022-08-09T03:37:10.578Z,76.84
2022-08-09T03:42:14.065Z,77.49
2022-08-09T03:47:22.700Z,77.60
2022-08-09T03:52:30.146Z,77.42
2022-08-09T03:57:34.441Z,77.20
2022-08-09T04:02:57.580Z,77.21
2022-08-09T04:08:00.929Z,77.40
2022-08-09T04:13:11.496Z,77.90
2022-08-09T04:18:17.908Z,78.22
2022-08-09T04:23:24.425Z,77.99
2022-08-09T04:28:33.872Z,77.92
2022-08-09T04:33:51.800Z,77.58
2022-08-09T04:39:03.807Z,77.24
2022-08-09T04:44:12.336Z,77.26
2022-08-09T04:49:30.250Z,77.45
2022-08-09T04:54:42.103Z,77.27
2022-08-09T04:59:45.512Z,77.12
2022-08-09T05:04:55.837Z,76.89
2022-08-09T05:10:01.784Z,77.07
2022-08-09T05:15:11.727Z,76.89
2022-08-09T05:20:29.800Z,77.05
2022-08-09T05:25:34.229Z,77.00
2022-08-09T05:30:38.673Z,76.78
2022-08-09T05:35:51.198Z,76.67
2022-08-09T05:40:54.495Z,76.51
2022-08-09T05:45:58.003Z,76.18
2022-08-09T05:51:42.813Z,76.18
2022-08-09T05:56:26.649Z,76.14
2022-08-09T06:01:33.531Z,75.70
2022-08-09T06:06:37.573Z,75.49
2022-08-09T06:11:57.489Z,75.30
2022-08-09T06:17:09.377Z,75.26
2022-08-09T06:22:15.350Z,74.99
2022-08-09T06:27:19.075Z,74.78
2022-08-09T06:32:59.093Z,74.91
2022-08-09T06:37:53.248Z,74.52
2022-08-09T06:43:10.329Z,74.35
2022-08-09T06:48:16.478Z,74.03
2022-08-09T06:53:20.382Z,73.85
2022-08-09T06:58:40.567Z,73.41
2022-08-09T07:03:51.851Z,73.26
2022-08-09T07:08:57.244Z,73.05
2022-08-09T07:14:04.126Z,73.16
2022-08-09T07:19:14.992Z,72.88
2022-08-09T07:24:20.035Z,72.64
2022-08-09T07:29:24.223Z,72.36
2022-08-09T07:34:28.545Z,72.17
2022-08-09T07:39:40.919Z,71.32
2022-08-09T07:44:51.719Z,71.20
2022-08-09T07:50:07.973Z,71.14
2022-08-09T07:55:12.916Z,70.59
2022-08-09T08:00:20.613Z,69.91
2022-08-09T08:05:53.953Z,69.41
2022-08-09T08:12:07.724Z,68.66
2022-08-09T08:16:31.851Z,68.43
2022-08-09T08:21:39.835Z,67.89
2022-08-09T08:27:16.936Z,67.97
2022-08-09T08:32:28.932Z,67.48
2022-08-09T08:37:41.396Z,66.88
2022-08-09T08:42:58.675Z,65.69
2022-08-09T08:48:03.240Z,65.06
2022-08-09T08:53:15.886Z,65.19
2022-08-09T08:58:27.098Z,64.30
2022-08-09T09:03:37.544Z,63.51
2022-08-09T09:08:43.284Z,62.04
2022-08-09T09:14:00.960Z,61.67
2022-08-09T09:19:40.428Z,59.78
2022-08-09T09:24:34.641Z,59.35
2022-08-09T09:30:10.653Z,59.04
2022-08-09T09:35:16.002Z,57.61
2022-08-09T09:40:21.393Z,57.21
2022-08-09T09:45:26.466Z,57.43
2022-08-09T09:50:50.528Z,56.79
2022-08-09T09:56:05.154Z,55.62
2022-08-09T10:01:37.214Z,54.76
2022-08-09T10:06:47.049Z,53.77
2022-08-09T10:12:12.965Z,53.50
2022-08-09T10:17:51.098Z,53.10
2022-08-09T10:23:01.132Z,51.43
2022-08-09T10:28:05.208Z,50.14
2022-08-09T10:34:07.879Z,50.05
2022-08-09T10:38:56.252Z,48.15
2022-08-09T10:44:01.826Z,47.98
2022-08-09T10:49:11.334Z,46.78
2022-08-09T10:54:24.880Z,46.91
2022-08-09T10:59:31.781Z,45.83
2022-08-09T11:05:25.408Z,44.90
2022-08-09T11:10:53.300Z,45.62
2022-08-09T11:16:38.469Z,45.11
2022-08-09T11:21:56.973Z,45.58
2022-08-09T11:28:04.205Z,44.90
2022-08-09T11:33:13.784Z,44.45
2022-08-09T11:38:22.566Z,43.88
2022-08-09T11:43:37.449Z,43.61
2022-08-09T11:48:58.021Z,43.24
2022-08-09T11:54:27.589Z,42.68
2022-08-09T11:59:33.672Z,43.09
2022-08-09T12:04:37.970Z,42.80
2022-08-09T12:09:51.024Z,42.49
2022-08-09T12:15:07.590Z,41.99
2022-08-09T12:20:21.568Z,41.26
2022-08-09T12:25:36.441Z,40.88
2022-08-09T12:30:43.151Z,40.43
2022-08-09T12:35:47.937Z,40.09
2022-08-09T12:40:54.174Z,39.95
2022-08-09T12:46:00.520Z,41.07
2022-08-09T12:51:04.892Z,42.50
2022-08-09T12:56:43.120Z,43.66
2022-08-09T13:02:09.703Z,44.42
2022-08-09T13:07:19.659Z,45.47
2022-08-09T13:12:23.575Z,46.30
2022-08-09T13:18:03.229Z,46.24
2022-08-09T13:23:05.801Z,46.40
2022-08-09T13:28:39.420Z,46.50
2022-08-09T13:33:53.639Z,46.71
2022-08-09T13:39:00.981Z,46.66
2022-08-09T13:44:07.937Z,46.55
2022-08-09T13:49:18.070Z,46.41
2022-08-09T13:54:25.752Z,46.28
2022-08-09T13:59:41.702Z,46.07
2022-08-09T14:04:49.514Z,45.71
2022-08-09T14:10:04.767Z,45.25
2022-08-09T14:16:06.771Z,44.89
2022-08-09T14:20:31.814Z,43.92
2022-08-09T14:25:42.867Z,43.37
2022-08-09T14:30:46.424Z,40.51
2022-08-09T14:35:52.555Z,39.19
2022-08-09T14:41:01.091Z,38.10
2022-08-09T14:46:59.032Z,37.76
2022-08-09T14:51:29.446Z,36.49
2022-08-09T14:56:33.391Z,32.80
2022-08-09T15:01:36.955Z,31.97
2022-08-09T15:06:41.036Z,33.73
2022-08-09T15:11:53.050Z,34.08
2022-08-09T15:16:56.771Z,34.72
2022-08-09T15:22:02.592Z,34.66
2022-08-09T15:27:06.372Z,34.55
2022-08-09T15:32:29.414Z,34.73
2022-08-09T15:37:57.121Z,34.75
2022-08-09T15:43:01.867Z,36.20
2022-08-09T15:48:28.405Z,37.56
2022-08-09T15:54:04.611Z,38.27
2022-08-09T15:58:55.931Z,38.47
2022-08-09T16:03:59.752Z,38.95
2022-08-09T16:09:07.978Z,38.45
2022-08-09T16:14:11.390Z,37.51
2022-08-09T16:19:18.125Z,34.66
2022-08-09T16:24:33.716Z,32.84
2022-08-09T16:29:50.696Z,33.05
2022-08-09T16:34:58.343Z,33.57
2022-08-09T16:40:04.957Z,32.49
2022-08-09T16:45:10.596Z,30.15
2022-08-09T16:50:29.208Z,29.03
2022-08-09T16:55:58.317Z,29.47
2022-08-09T17:00:59.870Z,31.07
2022-08-09T17:06:28.426Z,33.80
2022-08-09T17:11:41.137Z,35.26
2022-08-09T17:16:45.405Z,35.70
2022-08-09T17:21:48.716Z,34.34
2022-08-09T17:26:58.886Z,33.92
2022-08-09T17:32:02.503Z,33.58
2022-08-09T17:37:06.717Z,33.00
2022-08-09T17:42:40.917Z,32.86
2022-08-09T17:47:49.927Z,33.53
2022-08-09T17:52:58.450Z,33.96
2022-08-09T17:58:05.432Z,34.92
2022-08-09T18:03:13.217Z,36.38
2022-08-09T18:08:17.084Z,38.19
2022-08-09T18:13:39.115Z,40.40
2022-08-09T18:18:49.378Z,42.54
2022-08-09T18:24:10.035Z,43.10
2022-08-09T18:30:40.885Z,44.19
2022-08-09T18:34:40.200Z,44.80
2022-08-09T18:39:48.487Z,45.94
2022-08-09T18:44:52.042Z,47.63
2022-08-09T18:50:02.910Z,47.99
2022-08-09T18:55:13.630Z,49.69
2022-08-09T19:00:20.385Z,50.39
2022-08-09T19:05:28.757Z,50.74
2022-08-09T19:10:48.328Z,51.00
2022-08-09T19:15:52.968Z,52.13
2022-08-09T19:21:00.654Z,52.01
2022-08-09T19:26:05.738Z,52.21
2022-08-09T19:31:10.478Z,52.48
2022-08-09T19:36:13.896Z,52.66
2022-08-09T19:41:35.305Z,53.05
2022-08-09T19:46:50.298Z,54.24
2022-08-09T19:51:57.359Z,55.12
2022-08-09T19:57:01.286Z,55.93
2022-08-09T20:03:23.969Z,56.47
2022-08-09T20:07:33.765Z,56.71
2022-08-09T20:12:53.048Z,57.24
2022-08-09T20:17:59.507Z,57.58
2022-08-09T20:23:03.254Z,58.07
2022-08-09T20:28:06.971Z,57.91
2022-08-09T20:33:10.488Z,59.04
2022-08-09T20:38:24.028Z,60.97
2022-08-09T20:43:38.515Z,62.53
2022-08-09T20:48:48.277Z,61.02
2022-08-09T20:53:51.788Z,60.65
2022-08-09T20:58:58.904Z,60.67
2022-08-09T21:05:48.181Z,61.17
2022-08-09T21:09:41.953Z,62.46
2022-08-09T21:14:49.576Z,62.57
2022-08-09T21:20:18.594Z,62.76
2022-08-09T21:25:37.663Z,62.70
2022-08-09T21:30:42.350Z,62.67
2022-08-09T21:35:52.464Z,63.20
2022-08-09T21:40:56.286Z,63.95
2022-08-09T21:45:59.879Z,63.65
2022-08-09T21:51:13.310Z,63.95
2022-08-09T21:56:42.030Z,65.38
2022-08-09T22:02:00.279Z,66.92
2022-08-09T22:07:05.805Z,67.04
2022-08-09T22:12:24.500Z,66.45
2022-08-09T22:17:32.832Z,67.20
2022-08-09T22:22:37.750Z,67.80
2022-08-09T22:27:41.273Z,68.12
2022-08-09T22:32:45.702Z,68.57
2022-08-09T22:37:49.013Z,68.79
2022-08-09T22:43:16.838Z,68.81
2022-08-09T22:48:34.522Z,68.95
2022-08-09T22:53:44.338Z,68.92
2022-08-09T22:59:58.224Z,69.31
2022-08-09T23:04:32.535Z,69.45
2022-08-09T23:09:36.227Z,69.70
2022-08-09T23:14:42.044Z,69.85
2022-08-09T23:20:06.754Z,70.16
2022-08-09T23:25:09.494Z,70.45
2022-08-09T23:30:13.125Z,70.69
2022-08-09T23:35:16.442Z,70.59
2022-08-09T23:40:19.853Z,71.13
2022-08-09T23:45:36.853Z,71.78
2022-08-09T23:50:41.936Z,71.55
2022-08-09T23:55:49.885Z,71.89
